createdAt,value
2023-05-09T00:00:08.260Z,97.11
2023-05-09T00:01:08.517Z,97.11
2023-05-09T00:02:08.238Z,97.11
2023-05-09T00:03:08.392Z,97.32
2023-05-09T00:04:08.220Z,97.72
2023-05-09T00:05:08.995Z,97.52
2023-05-09T00:06:08.188Z,97.47
2023-05-09T00:07:08.885Z,97.47
2023-05-09T00:08:08.136Z,97.56
2023-05-09T00:09:08.131Z,97.56
2023-05-09T00:10:08.147Z,97.47
2023-05-09T00:11:08.117Z,97.56
2023-05-09T00:12:08.109Z,97.67
2023-05-09T00:13:08.194Z,97.77
2023-05-09T00:14:08.081Z,97.87
2023-05-09T00:15:08.096Z,97.97
2023-05-09T00:16:08.134Z,97.97
2023-05-09T00:17:08.045Z,97.97
2023-05-09T00:18:08.032Z,98.18
2023-05-09T00:19:08.023Z,98.18
2023-05-09T00:20:08.042Z,98.43
2023-05-09T00:21:07.998Z,98.63
2023-05-09T00:22:07.988Z,98.73
2023-05-09T00:23:07.977Z,98.73
2023-05-09T00:24:07.977Z,98.83
2023-05-09T00:25:07.996Z,99.04
2023-05-09T00:26:07.933Z,99.04
2023-05-09T00:27:07.956Z,99.04
2023-05-09T00:28:07.939Z,99.04
2023-05-09T00:29:07.894Z,99.13
2023-05-09T00:30:07.874Z,99.13
2023-05-09T00:31:07.900Z,99.33
2023-05-09T00:32:07.897Z,99.44
2023-05-09T00:33:07.894Z,99.44
2023-05-09T00:34:07.869Z,99.54
2023-05-09T00:35:07.839Z,99.58
2023-05-09T00:36:07.825Z,99.58
2023-05-09T00:37:07.841Z,99.69
2023-05-09T00:38:07.798Z,99.69
2023-05-09T00:39:07.786Z,99.79
2023-05-09T00:40:07.788Z,99.85
2023-05-09T00:41:07.762Z,99.89
2023-05-09T00:42:07.768Z,99.85
2023-05-09T00:43:07.773Z,99.99
2023-05-09T00:44:07.742Z,99.95
2023-05-09T00:45:07.739Z,99.95
2023-05-09T00:46:07.752Z,99.85
2023-05-09T00:47:07.711Z,99.85
2023-05-09T00:48:07.724Z,99.85
2023-05-09T00:49:07.679Z,99.95
2023-05-09T00:50:07.698Z,99.99
2023-05-09T00:51:07.660Z,99.89
2023-05-09T00:52:07.652Z,99.89
2023-05-09T00:53:07.641Z,99.99
2023-05-09T00:54:09.094Z,99.99
2023-05-09T00:55:07.594Z,99.89
2023-05-09T00:56:07.581Z,99.99
2023-05-09T00:57:07.608Z,99.99
2023-05-09T00:58:07.575Z,99.99
2023-05-09T00:59:07.560Z,99.99
2023-05-09T01:00:07.564Z,99.99
2023-05-09T01:01:07.587Z,99.99
2023-05-09T01:02:07.558Z,99.99
2023-05-09T01:03:07.551Z,99.99
2023-05-09T01:04:07.505Z,99.99
2023-05-09T01:05:07.493Z,99.99
2023-05-09T01:06:07.479Z,99.99
2023-05-09T01:07:07.500Z,99.99
2023-05-09T01:08:07.459Z,99.99
2023-05-09T01:09:07.444Z,99.99
2023-05-09T01:10:07.434Z,99.99
2023-05-09T01:11:07.456Z,99.99
2023-05-09T01:12:07.419Z,99.99
2023-05-09T01:13:07.442Z,99.99
2023-05-09T01:14:07.404Z,99.99
2023-05-09T01:15:07.425Z,99.99
2023-05-09T01:16:07.379Z,99.99
2023-05-09T01:17:07.361Z,99.99
2023-05-09T01:18:08.148Z,99.99
2023-05-09T01:19:07.348Z,99.99
2023-05-09T01:20:07.349Z,99.95
2023-05-09T01:21:07.313Z,99.85
2023-05-09T01:22:07.297Z,99.69
2023-05-09T01:23:07.280Z,99.60
2023-05-09T01:24:08.062Z,99.60
2023-05-09T01:25:07.273Z,99.60
2023-05-09T01:26:07.272Z,99.60
2023-05-09T01:27:07.239Z,99.49
2023-05-09T01:28:07.233Z,99.39
2023-05-09T01:29:07.217Z,99.29
2023-05-09T01:30:07.223Z,99.19
2023-05-09T01:31:07.221Z,99.19
2023-05-09T01:32:07.176Z,99.19
2023-05-09T01:33:07.184Z,99.08
2023-05-09T01:34:07.167Z,99.19
2023-05-09T01:35:07.161Z,99.19
2023-05-09T01:36:07.935Z,99.19
2023-05-09T01:37:07.117Z,99.29
2023-05-09T01:38:07.116Z,99.39
2023-05-09T01:39:07.101Z,99.39
2023-05-09T01:40:07.096Z,99.39
2023-05-09T01:41:07.084Z,99.49
2023-05-09T01:42:07.073Z,99.49
2023-05-09T01:43:07.091Z,99.60
2023-05-09T01:44:07.064Z,99.49
2023-05-09T01:45:07.034Z,99.49
2023-05-09T01:46:07.103Z,99.39
2023-05-09T01:47:07.029Z,99.39
2023-05-09T01:48:07.049Z,99.35
2023-05-09T01:49:06.987Z,99.35
2023-05-09T01:50:06.969Z,99.35
2023-05-09T01:51:06.950Z,99.24
2023-05-09T01:52:06.979Z,99.14
2023-05-09T01:53:06.948Z,99.14
2023-05-09T01:54:06.950Z,99.14
2023-05-09T01:55:07.775Z,99.14
2023-05-09T01:56:06.923Z,99.14
2023-05-09T01:57:06.935Z,99.24
2023-05-09T01:58:06.889Z,99.14
2023-05-09T01:59:06.908Z,99.14
2023-05-09T02:00:06.862Z,99.14
2023-05-09T02:01:06.882Z,99.14
2023-05-09T02:02:06.852Z,99.14
2023-05-09T02:03:06.889Z,99.04
2023-05-09T02:04:09.507Z,98.94
2023-05-09T02:05:06.797Z,98.84
2023-05-09T02:06:06.799Z,98.84
2023-05-09T02:07:06.785Z,98.74
2023-05-09T02:08:06.787Z,98.63
2023-05-09T02:09:06.771Z,98.43
2023-05-09T02:10:06.738Z,98.33
2023-05-09T02:11:06.744Z,98.33
2023-05-09T02:12:07.018Z,98.23
2023-05-09T02:13:06.748Z,98.18
2023-05-09T02:14:06.716Z,98.03
2023-05-09T02:15:06.769Z,97.88
2023-05-09T02:16:06.727Z,97.88
2023-05-09T02:17:06.785Z,97.88
2023-05-09T02:18:06.698Z,97.88
2023-05-09T02:19:06.643Z,97.78
2023-05-09T02:20:06.624Z,97.67
2023-05-09T02:21:06.676Z,97.67
2023-05-09T02:22:06.603Z,97.78
2023-05-09T02:23:06.600Z,97.88
2023-05-09T02:24:06.602Z,97.88
2023-05-09T02:25:06.575Z,97.67
2023-05-09T02:26:06.570Z,97.58
2023-05-09T02:27:06.534Z,97.58
2023-05-09T02:28:06.541Z,97.58
2023-05-09T02:29:06.594Z,97.58
2023-05-09T02:30:06.546Z,97.47
2023-05-09T02:31:06.522Z,97.47
2023-05-09T02:32:06.518Z,97.58
2023-05-09T02:33:06.545Z,97.58
2023-05-09T02:34:06.474Z,97.58
2023-05-09T02:35:06.471Z,97.47
2023-05-09T02:36:06.464Z,97.47
2023-05-09T02:37:06.421Z,97.47
2023-05-09T02:38:06.449Z,97.38
2023-05-09T02:39:06.395Z,97.27
2023-05-09T02:40:06.423Z,97.27
2023-05-09T02:41:06.389Z,97.17
2023-05-09T02:42:06.398Z,97.27
2023-05-09T02:43:06.349Z,97.38
2023-05-09T02:44:06.375Z,97.38
2023-05-09T02:45:06.370Z,97.27
2023-05-09T02:46:06.358Z,97.38
2023-05-09T02:47:06.322Z,97.47
2023-05-09T02:48:08.695Z,97.38
2023-05-09T02:49:06.322Z,97.38
2023-05-09T02:50:06.329Z,97.27
2023-05-09T02:51:06.270Z,97.38
2023-05-09T02:52:06.262Z,97.38
2023-05-09T02:53:06.294Z,97.38
2023-05-09T02:54:06.291Z,97.38
2023-05-09T02:55:06.309Z,97.38
2023-05-09T02:56:06.213Z,97.38
2023-05-09T02:57:06.202Z,97.27
2023-05-09T02:58:14.381Z,97.27
2023-05-09T02:59:07.174Z,97.27
2023-05-09T03:00:06.178Z,97.27
2023-05-09T03:01:06.182Z,97.27
2023-05-09T03:02:06.167Z,97.17
2023-05-09T03:03:06.316Z,97.27
2023-05-09T03:04:06.165Z,97.27
2023-05-09T03:05:06.156Z,97.27
2023-05-09T03:06:06.213Z,97.27
2023-05-09T03:07:06.115Z,97.27
2023-05-09T03:08:06.159Z,97.27
2023-05-09T03:09:06.167Z,97.27
2023-05-09T03:10:06.200Z,97.27
2023-05-09T03:11:06.049Z,97.27
2023-05-09T03:12:06.047Z,97.27
2023-05-09T03:13:06.044Z,97.27
2023-05-09T03:14:06.172Z,97.27
2023-05-09T03:15:06.028Z,97.27
2023-05-09T03:16:06.074Z,97.27
2023-05-09T03:17:06.005Z,97.47
2023-05-09T03:18:06.070Z,97.47
2023-05-09T03:19:05.963Z,97.38
2023-05-09T03:20:05.950Z,97.38
2023-05-09T03:21:05.958Z,97.47
2023-05-09T03:22:05.943Z,97.47
2023-05-09T03:23:05.910Z,97.47
2023-05-09T03:24:05.894Z,97.47
2023-05-09T03:25:05.884Z,97.47
2023-05-09T03:26:05.884Z,97.47
2023-05-09T03:27:08.618Z,97.47
2023-05-09T03:28:05.884Z,97.47
2023-05-09T03:29:05.850Z,97.58
2023-05-09T03:30:05.852Z,97.67
2023-05-09T03:31:05.864Z,97.67
2023-05-09T03:32:05.832Z,97.58
2023-05-09T03:33:05.858Z,97.58
2023-05-09T03:34:05.834Z,97.67
2023-05-09T03:35:05.834Z,97.67
2023-05-09T03:36:05.818Z,97.78
2023-05-09T03:37:06.012Z,97.67
2023-05-09T03:38:05.772Z,97.67
2023-05-09T03:39:05.764Z,97.58
2023-05-09T03:40:05.771Z,97.58
2023-05-09T03:41:05.716Z,97.58
2023-05-09T03:42:05.703Z,97.58
2023-05-09T03:43:05.709Z,97.58
2023-05-09T03:44:05.695Z,97.58
2023-05-09T03:45:05.703Z,97.67
2023-05-09T03:46:05.667Z,97.67
2023-05-09T03:47:05.954Z,97.67
2023-05-09T03:48:05.658Z,97.78
2023-05-09T03:49:05.921Z,97.78
2023-05-09T03:50:05.639Z,97.78
2023-05-09T03:51:05.616Z,97.78
2023-05-09T03:52:05.587Z,97.78
2023-05-09T03:53:05.580Z,97.88
2023-05-09T03:54:05.591Z,97.98
2023-05-09T03:55:05.565Z,97.98
2023-05-09T03:56:05.544Z,97.98
2023-05-09T03:57:05.558Z,97.98
2023-05-09T03:58:05.530Z,97.98
2023-05-09T03:59:05.589Z,97.98
2023-05-09T04:00:07.002Z,97.98
2023-05-09T04:01:05.506Z,97.98
2023-05-09T04:02:05.482Z,97.98
2023-05-09T04:03:05.887Z,97.98
2023-05-09T04:04:05.586Z,97.98
2023-05-09T04:05:05.436Z,97.98
2023-05-09T04:06:05.433Z,97.88
2023-05-09T04:07:05.449Z,97.88
2023-05-09T04:08:05.419Z,97.98
2023-05-09T04:09:07.145Z,97.88
2023-05-09T04:10:05.388Z,97.88
2023-05-09T04:11:05.391Z,97.88
2023-05-09T04:12:05.378Z,97.78
2023-05-09T04:13:05.419Z,97.88
2023-05-09T04:14:05.340Z,97.78
2023-05-09T04:15:05.326Z,97.88
2023-05-09T04:16:05.327Z,97.98
2023-05-09T04:17:05.428Z,97.88
2023-05-09T04:18:05.330Z,97.88
2023-05-09T04:19:05.294Z,97.88
2023-05-09T04:20:05.279Z,97.88
2023-05-09T04:21:05.256Z,97.88
2023-05-09T04:22:05.253Z,97.88
2023-05-09T04:23:05.248Z,97.88
2023-05-09T04:24:05.213Z,97.98
2023-05-09T04:25:05.214Z,97.94
2023-05-09T04:26:05.241Z,97.88
2023-05-09T04:27:06.426Z,97.88
2023-05-09T04:28:05.436Z,97.88
2023-05-09T04:29:05.186Z,97.88
2023-05-09T04:30:05.182Z,97.73
2023-05-09T04:31:06.042Z,97.73
2023-05-09T04:32:08.892Z,97.73
2023-05-09T04:33:05.161Z,97.73
2023-05-09T04:34:05.116Z,97.83
2023-05-09T04:35:05.132Z,97.83
2023-05-09T04:36:05.122Z,97.83
2023-05-09T04:37:05.084Z,97.94
2023-05-09T04:38:05.068Z,97.83
2023-05-09T04:39:05.064Z,97.83
2023-05-09T04:40:05.097Z,97.83
2023-05-09T04:41:05.043Z,97.83
2023-05-09T04:42:05.030Z,97.94
2023-05-09T04:43:05.003Z,97.83
2023-05-09T04:44:05.735Z,97.94
2023-05-09T04:45:05.008Z,98.03
2023-05-09T04:46:05.097Z,98.03
2023-05-09T04:47:04.963Z,97.83
2023-05-09T04:48:05.006Z,97.83
2023-05-09T04:49:05.276Z,97.73
2023-05-09T04:50:04.944Z,97.73
2023-05-09T04:51:06.093Z,97.73
2023-05-09T04:52:05.642Z,97.73
2023-05-09T04:53:04.890Z,97.73
2023-05-09T04:54:04.934Z,97.73
2023-05-09T04:55:05.353Z,97.63
2023-05-09T04:56:04.873Z,97.83
2023-05-09T04:57:16.576Z,98.03
2023-05-09T04:58:05.869Z,98.03
2023-05-09T04:59:04.859Z,97.94
2023-05-09T05:00:04.826Z,97.94
2023-05-09T05:01:05.654Z,97.73
2023-05-09T05:02:06.787Z,97.73
2023-05-09T05:03:04.846Z,97.73
2023-05-09T05:04:04.783Z,97.73
2023-05-09T05:05:11.503Z,97.73
2023-05-09T05:06:05.770Z,97.73
2023-05-09T05:07:04.803Z,97.73
2023-05-09T05:08:04.748Z,97.83
2023-05-09T05:09:04.762Z,97.73
2023-05-09T05:10:04.733Z,97.63
2023-05-09T05:11:05.027Z,97.63
2023-05-09T05:12:06.586Z,97.53
2023-05-09T05:13:04.929Z,97.43
2023-05-09T05:14:04.897Z,97.38
2023-05-09T05:15:04.711Z,97.28
2023-05-09T05:16:04.668Z,97.18
2023-05-09T05:17:05.641Z,97.18
2023-05-09T05:18:05.613Z,97.08
2023-05-09T05:19:04.624Z,96.98
2023-05-09T05:20:09.547Z,96.98
2023-05-09T05:21:07.339Z,96.98
2023-05-09T05:22:04.873Z,96.88
2023-05-09T05:23:05.226Z,96.78
2023-05-09T05:24:05.477Z,96.67
2023-05-09T05:25:05.027Z,96.78
2023-05-09T05:26:04.560Z,96.73
2023-05-09T05:27:04.521Z,96.63
2023-05-09T05:28:04.604Z,96.63
2023-05-09T05:29:04.513Z,96.53
2023-05-09T05:30:07.080Z,96.53
2023-05-09T05:31:04.646Z,96.42
2023-05-09T05:32:04.482Z,96.33
2023-05-09T05:33:04.511Z,96.33
2023-05-09T05:34:05.542Z,96.22
2023-05-09T05:35:04.441Z,96.22
2023-05-09T05:36:04.433Z,96.33
2023-05-09T05:37:04.407Z,96.33
2023-05-09T05:38:04.426Z,96.22
2023-05-09T05:39:04.393Z,96.02
2023-05-09T05:40:04.403Z,95.92
2023-05-09T05:41:04.375Z,95.92
2023-05-09T05:42:04.379Z,95.82
2023-05-09T05:43:04.352Z,95.72
2023-05-09T05:44:04.335Z,95.72
2023-05-09T05:45:04.372Z,95.67
2023-05-09T05:46:04.380Z,95.47
2023-05-09T05:47:04.325Z,95.17
2023-05-09T05:48:05.256Z,94.96
2023-05-09T05:49:04.324Z,94.72
2023-05-09T05:50:05.032Z,94.42
2023-05-09T05:51:04.275Z,94.31
2023-05-09T05:52:04.582Z,94.11
2023-05-09T05:53:04.279Z,93.96
2023-05-09T05:54:04.798Z,93.96
2023-05-09T05:55:04.229Z,93.66
2023-05-09T05:56:04.205Z,93.46
2023-05-09T05:57:04.217Z,93.36
2023-05-09T05:58:04.189Z,93.21
2023-05-09T05:59:04.184Z,93.12
2023-05-09T06:00:05.656Z,92.50
2023-05-09T06:01:04.180Z,92.21
2023-05-09T06:02:04.726Z,92.30
2023-05-09T06:03:04.208Z,92.41
2023-05-09T06:04:04.888Z,92.41
2023-05-09T06:05:04.115Z,92.41
2023-05-09T06:06:04.142Z,92.71
2023-05-09T06:07:04.090Z,92.61
2023-05-09T06:08:04.080Z,92.61
2023-05-09T06:09:04.066Z,92.71
2023-05-09T06:10:04.083Z,92.50
2023-05-09T06:11:04.712Z,92.50
2023-05-09T06:12:04.038Z,92.61
2023-05-09T06:13:04.596Z,92.50
2023-05-09T06:14:05.472Z,92.21
2023-05-09T06:15:03.979Z,92.10
2023-05-09T06:16:18.476Z,92.21
2023-05-09T06:17:04.992Z,92.10
2023-05-09T06:18:04.951Z,92.00
2023-05-09T06:19:03.944Z,91.86
2023-05-09T06:20:04.709Z,91.86
2023-05-09T06:21:03.906Z,91.86
2023-05-09T06:22:03.899Z,91.96
2023-05-09T06:23:04.578Z,91.46
2023-05-09T06:24:09.769Z,91.11
2023-05-09T06:25:04.873Z,90.61
2023-05-09T06:26:04.165Z,90.61
2023-05-09T06:27:05.075Z,90.41
2023-05-09T06:28:04.621Z,90.10
2023-05-09T06:29:04.871Z,90.10
2023-05-09T06:30:14.115Z,90.10
2023-05-09T06:31:05.125Z,89.90
2023-05-09T06:32:04.587Z,89.90
2023-05-09T06:33:04.533Z,90.00
2023-05-09T06:34:04.897Z,90.20
2023-05-09T06:35:04.454Z,90.00
2023-05-09T06:36:03.759Z,89.90
2023-05-09T06:37:04.629Z,89.79
2023-05-09T06:38:04.457Z,90.00
2023-05-09T06:39:04.936Z,89.90
2023-05-09T06:40:03.688Z,90.00
2023-05-09T06:41:04.761Z,89.90
2023-05-09T06:42:03.682Z,90.20
2023-05-09T06:43:03.662Z,90.41
2023-05-09T06:44:04.096Z,90.50
2023-05-09T06:45:03.669Z,90.00
2023-05-09T06:46:03.643Z,89.79
2023-05-09T06:47:03.637Z,90.10
2023-05-09T06:48:03.646Z,90.10
2023-05-09T06:49:04.129Z,90.00
2023-05-09T06:50:03.572Z,89.59
2023-05-09T06:51:03.612Z,89.15
2023-05-09T06:52:03.560Z,89.35
2023-05-09T06:53:03.537Z,89.25
2023-05-09T06:54:04.173Z,89.35
2023-05-09T06:55:03.518Z,88.14
2023-05-09T06:56:03.514Z,88.54
2023-05-09T06:57:03.488Z,88.24
2023-05-09T06:58:03.494Z,87.94
2023-05-09T06:59:04.203Z,87.90
2023-05-09T07:00:03.466Z,87.60
2023-05-09T07:01:03.463Z,87.90
2023-05-09T07:02:04.156Z,87.60
2023-05-09T07:03:03.441Z,87.09
2023-05-09T07:04:03.513Z,86.99
2023-05-09T07:05:03.716Z,87.09
2023-05-09T07:06:03.378Z,86.38
2023-05-09T07:07:03.417Z,86.55
2023-05-09T07:08:03.427Z,87.05
2023-05-09T07:09:03.363Z,86.44
2023-05-09T07:10:11.057Z,86.55
2023-05-09T07:11:04.622Z,86.55
2023-05-09T07:12:03.352Z,86.75
2023-05-09T07:13:03.929Z,86.24
2023-05-09T07:14:03.295Z,86.04
2023-05-09T07:15:03.314Z,86.51
2023-05-09T07:16:03.330Z,86.21
2023-05-09T07:17:21.157Z,85.96
2023-05-09T07:18:04.957Z,85.16
2023-05-09T07:19:03.239Z,85.16
2023-05-09T07:20:03.281Z,84.71
2023-05-09T07:21:03.733Z,84.61
2023-05-09T07:22:04.441Z,84.61
2023-05-09T07:23:03.243Z,84.51
2023-05-09T07:24:05.156Z,84.01
2023-05-09T07:25:03.582Z,83.71
2023-05-09T07:26:03.213Z,83.67
2023-05-09T07:27:03.968Z,83.76
2023-05-09T07:28:03.180Z,83.17
2023-05-09T07:29:03.139Z,82.86
2023-05-09T07:30:03.254Z,82.26
2023-05-09T07:31:04.053Z,82.06
2023-05-09T07:32:03.627Z,81.96
2023-05-09T07:33:03.140Z,82.52
2023-05-09T07:34:04.265Z,82.62
2023-05-09T07:35:03.111Z,82.62
2023-05-09T07:36:03.060Z,82.62
2023-05-09T07:37:03.077Z,82.62
2023-05-09T07:38:03.085Z,82.12
2023-05-09T07:39:03.011Z,82.32
2023-05-09T07:40:03.662Z,82.16
2023-05-09T07:41:03.002Z,82.76
2023-05-09T07:42:03.653Z,82.36
2023-05-09T07:43:06.200Z,82.56
2023-05-09T07:44:03.479Z,82.97
2023-05-09T07:45:02.948Z,83.06
2023-05-09T07:46:02.999Z,83.26
2023-05-09T07:47:03.692Z,83.57
2023-05-09T07:48:02.945Z,82.76
2023-05-09T07:49:02.903Z,82.76
2023-05-09T07:50:02.909Z,83.17
2023-05-09T07:51:02.914Z,82.56
2023-05-09T07:52:02.905Z,82.06
2023-05-09T07:53:03.975Z,81.96
2023-05-09T07:54:02.846Z,81.65
2023-05-09T07:55:03.779Z,81.96
2023-05-09T07:56:03.340Z,81.82
2023-05-09T07:57:02.828Z,81.72
2023-05-09T07:58:04.008Z,80.31
2023-05-09T07:59:03.946Z,80.68
2023-05-09T08:00:02.808Z,80.07
2023-05-09T08:01:02.771Z,80.88
2023-05-09T08:02:02.846Z,80.54
2023-05-09T08:03:03.022Z,80.30
2023-05-09T08:04:02.798Z,79.80
2023-05-09T08:05:02.748Z,78.49
2023-05-09T08:06:03.403Z,78.79
2023-05-09T08:07:02.689Z,79.19
2023-05-09T08:08:02.680Z,78.79
2023-05-09T08:09:02.668Z,78.22
2023-05-09T08:10:02.664Z,78.83
2023-05-09T08:11:02.663Z,78.49
2023-05-09T08:12:02.675Z,78.39
2023-05-09T08:13:02.739Z,78.35
2023-05-09T08:14:03.569Z,77.75
2023-05-09T08:15:02.649Z,77.09
2023-05-09T08:16:02.688Z,76.78
2023-05-09T08:17:02.621Z,76.28
2023-05-09T08:18:03.673Z,76.72
2023-05-09T08:19:03.536Z,78.12
2023-05-09T08:20:03.391Z,78.19
2023-05-09T08:21:02.564Z,77.28
2023-05-09T08:22:02.846Z,77.59
2023-05-09T08:23:03.309Z,77.19
2023-05-09T08:24:03.558Z,76.38
2023-05-09T08:25:02.549Z,74.88
2023-05-09T08:26:02.511Z,75.48
2023-05-09T08:27:03.308Z,75.58
2023-05-09T08:28:02.505Z,75.95
2023-05-09T08:29:02.753Z,74.64
2023-05-09T08:30:02.466Z,75.54
2023-05-09T08:31:02.543Z,75.51
2023-05-09T08:32:03.320Z,76.21
2023-05-09T08:33:02.467Z,77.41
2023-05-09T08:34:02.453Z,76.61
2023-05-09T08:35:02.423Z,76.71
2023-05-09T08:36:02.408Z,76.31
2023-05-09T08:37:02.376Z,76.11
2023-05-09T08:38:02.372Z,76.57
2023-05-09T08:39:02.621Z,76.98
2023-05-09T08:40:02.346Z,76.47
2023-05-09T08:41:02.614Z,75.77
2023-05-09T08:42:03.079Z,75.97
2023-05-09T08:43:03.280Z,74.47
2023-05-09T08:44:02.314Z,74.40
2023-05-09T08:45:02.352Z,73.54
2023-05-09T08:46:02.345Z,73.94
2023-05-09T08:47:03.138Z,73.84
2023-05-09T08:48:03.362Z,74.34
2023-05-09T08:49:02.266Z,74.80
2023-05-09T08:50:02.241Z,74.10
2023-05-09T08:51:02.239Z,74.60
2023-05-09T08:52:03.111Z,74.10
2023-05-09T08:53:02.483Z,74.90
2023-05-09T08:54:02.206Z,74.67
2023-05-09T08:55:02.193Z,73.86
2023-05-09T08:56:03.052Z,75.07
2023-05-09T08:57:02.947Z,74.47
2023-05-09T08:58:02.149Z,72.16
2023-05-09T08:59:03.288Z,72.66
2023-05-09T09:00:02.130Z,72.93
2023-05-09T09:01:03.081Z,71.77
2023-05-09T09:02:02.143Z,71.56
2023-05-09T09:03:02.160Z,71.56
2023-05-09T09:04:03.301Z,71.23
2023-05-09T09:05:03.304Z,72.83
2023-05-09T09:06:02.067Z,72.93
2023-05-09T09:07:03.018Z,72.03
2023-05-09T09:08:02.919Z,72.73
2023-05-09T09:09:02.858Z,71.73
2023-05-09T09:10:02.012Z,73.23
2023-05-09T09:11:02.128Z,73.50
2023-05-09T09:12:03.047Z,72.00
2023-05-09T09:13:02.669Z,72.50
2023-05-09T09:14:02.854Z,72.43
2023-05-09T09:15:02.792Z,72.53
2023-05-09T09:16:02.693Z,72.13
2023-05-09T09:17:03.094Z,72.30
2023-05-09T09:18:03.839Z,70.79
2023-05-09T09:19:02.904Z,71.09
2023-05-09T09:20:02.806Z,71.56
2023-05-09T09:21:02.692Z,70.86
2023-05-09T09:22:03.138Z,70.23
2023-05-09T09:23:01.896Z,69.43
2023-05-09T09:24:01.855Z,68.69
2023-05-09T09:25:01.851Z,68.69
2023-05-09T09:26:01.921Z,68.02
2023-05-09T09:27:02.632Z,68.32
2023-05-09T09:28:01.804Z,68.62
2023-05-09T09:29:02.992Z,68.62
2023-05-09T09:30:02.856Z,66.99
2023-05-09T09:31:02.776Z,67.49
2023-05-09T09:32:01.810Z,68.59
2023-05-09T09:33:02.610Z,68.59
2023-05-09T09:34:01.764Z,67.76
2023-05-09T09:35:02.888Z,67.43
2023-05-09T09:36:01.730Z,67.63
2023-05-09T09:37:02.722Z,67.02
2023-05-09T09:38:02.608Z,65.52
2023-05-09T09:39:02.513Z,65.92
2023-05-09T09:40:02.416Z,64.92
2023-05-09T09:41:01.663Z,65.33
2023-05-09T09:42:02.729Z,65.79
2023-05-09T09:43:01.642Z,66.09
2023-05-09T09:44:02.150Z,65.89
2023-05-09T09:45:01.603Z,66.09
2023-05-09T09:46:02.451Z,65.99
2023-05-09T09:47:02.121Z,66.09
2023-05-09T09:48:02.713Z,65.59
2023-05-09T09:49:02.139Z,64.59
2023-05-09T09:50:01.623Z,65.33
2023-05-09T09:51:02.380Z,65.75
2023-05-09T09:52:02.129Z,66.82
2023-05-09T09:53:02.700Z,66.82
2023-05-09T09:54:02.608Z,66.63
2023-05-09T09:55:01.520Z,65.92
2023-05-09T09:56:01.902Z,65.83
2023-05-09T09:57:02.328Z,65.83
2023-05-09T09:58:02.227Z,65.59
2023-05-09T09:59:01.464Z,65.39
2023-05-09T10:00:01.487Z,65.39
2023-05-09T10:01:02.472Z,64.99
2023-05-09T10:02:05.922Z,65.79
2023-05-09T10:03:03.333Z,65.86
2023-05-09T10:04:01.771Z,65.06
2023-05-09T10:05:02.570Z,65.16
2023-05-09T10:06:02.480Z,66.53
2023-05-09T10:07:02.392Z,66.43
2023-05-09T10:08:01.520Z,65.23
2023-05-09T10:09:02.213Z,65.30
2023-05-09T10:10:02.112Z,64.30
2023-05-09T10:11:01.328Z,63.13
2023-05-09T10:12:02.129Z,63.73
2023-05-09T10:13:01.434Z,64.43
2023-05-09T10:14:01.338Z,64.23
2023-05-09T10:15:01.282Z,64.23
2023-05-09T10:16:02.148Z,63.50
2023-05-09T10:17:02.509Z,64.50
2023-05-09T10:18:02.484Z,64.47
2023-05-09T10:19:04.116Z,63.87
2023-05-09T10:20:01.583Z,62.97
2023-05-09T10:21:02.086Z,64.94
2023-05-09T10:22:01.974Z,64.44
2023-05-09T10:23:02.384Z,63.17
2023-05-09T10:24:01.193Z,64.17
2023-05-09T10:25:02.201Z,65.47
2023-05-09T10:26:01.238Z,64.20
2023-05-09T10:27:01.167Z,65.60
2023-05-09T10:28:01.967Z,65.43
2023-05-09T10:29:01.134Z,65.33
2023-05-09T10:30:01.136Z,65.33
2023-05-09T10:31:01.156Z,66.63
2023-05-09T10:32:01.134Z,66.56
2023-05-09T10:33:01.136Z,67.53
2023-05-09T10:34:01.101Z,67.03
2023-05-09T10:35:01.103Z,66.66
2023-05-09T10:36:02.174Z,67.36
2023-05-09T10:37:02.064Z,67.16
2023-05-09T10:38:01.957Z,65.93
2023-05-09T10:39:04.145Z,66.23
2023-05-09T10:40:04.529Z,66.43
2023-05-09T10:41:02.191Z,66.63
2023-05-09T10:42:01.021Z,66.53
2023-05-09T10:43:01.986Z,65.63
2023-05-09T10:44:01.897Z,65.73
2023-05-09T10:45:01.820Z,65.93
2023-05-09T10:46:01.718Z,66.73
2023-05-09T10:47:01.588Z,66.60
2023-05-09T10:48:02.067Z,66.47
2023-05-09T10:49:01.928Z,65.97
2023-05-09T10:50:01.865Z,65.44
2023-05-09T10:51:01.746Z,64.54
2023-05-09T10:52:00.881Z,64.21
2023-05-09T10:53:00.870Z,64.41
2023-05-09T10:54:00.874Z,63.81
2023-05-09T10:55:03.066Z,63.68
2023-05-09T10:56:04.714Z,63.58
2023-05-09T10:57:00.870Z,62.01
2023-05-09T10:58:00.864Z,61.79
2023-05-09T10:59:00.882Z,62.08
2023-05-09T11:00:00.838Z,63.58
2023-05-09T11:01:00.797Z,63.35
2023-05-09T11:02:01.091Z,61.19
2023-05-09T11:03:00.792Z,61.41
2023-05-09T11:04:01.588Z,61.82
2023-05-09T11:05:01.947Z,62.01
2023-05-09T11:06:00.721Z,63.11
2023-05-09T11:07:01.734Z,62.68
2023-05-09T11:08:00.713Z,61.71
2023-05-09T11:09:00.691Z,60.89
2023-05-09T11:10:01.444Z,62.29
2023-05-09T11:11:01.865Z,61.69
2023-05-09T11:12:01.802Z,62.21
2023-05-09T11:13:00.711Z,62.31
2023-05-09T11:14:01.576Z,62.51
2023-05-09T11:15:01.490Z,61.79
2023-05-09T11:16:02.122Z,62.29
2023-05-09T11:17:01.851Z,61.79
2023-05-09T11:18:01.139Z,61.85
2023-05-09T11:19:01.605Z,60.26
2023-05-09T11:20:01.515Z,62.35
2023-05-09T11:21:03.844Z,61.99
2023-05-09T11:22:01.341Z,61.82
2023-05-09T11:23:00.769Z,63.41
2023-05-09T11:24:00.783Z,63.94
2023-05-09T11:25:00.544Z,64.04
2023-05-09T11:26:01.461Z,62.77
2023-05-09T11:27:01.008Z,63.97
2023-05-09T11:28:01.266Z,64.50
2023-05-09T11:29:01.668Z,64.80
2023-05-09T11:30:01.091Z,64.90
2023-05-09T11:31:01.483Z,65.80
2023-05-09T11:32:01.065Z,65.23
2023-05-09T11:33:00.423Z,65.93
2023-05-09T11:34:01.189Z,65.23
2023-05-09T11:35:01.619Z,64.53
2023-05-09T11:36:01.518Z,65.40
2023-05-09T11:37:01.078Z,65.00
2023-05-09T11:38:00.426Z,64.70
2023-05-09T11:39:00.422Z,65.00
2023-05-09T11:40:00.878Z,65.67
2023-05-09T11:41:00.700Z,65.26
2023-05-09T11:42:01.445Z,65.17
2023-05-09T11:43:01.349Z,64.84
2023-05-09T11:44:00.898Z,64.74
2023-05-09T11:45:01.176Z,64.14
2023-05-09T11:46:01.090Z,65.20
2023-05-09T11:47:00.979Z,62.21
2023-05-09T11:48:01.597Z,63.31
2023-05-09T11:49:00.433Z,61.82
2023-05-09T11:50:01.219Z,61.99
2023-05-09T11:51:00.781Z,62.88
2023-05-09T11:52:01.017Z,60.56
2023-05-09T11:53:00.556Z,62.45
2023-05-09T11:54:01.319Z,58.87
2023-05-09T11:55:00.167Z,59.34
2023-05-09T11:56:00.171Z,59.23
2023-05-09T11:57:00.505Z,59.04
2023-05-09T11:58:00.160Z,58.91
2023-05-09T11:59:00.148Z,58.61
2023-05-09T12:00:00.115Z,57.92
2023-05-09T12:01:00.813Z,57.45
2023-05-09T12:02:00.108Z,57.54
2023-05-09T12:03:01.137Z,58.51
2023-05-09T12:04:00.124Z,58.31
2023-05-09T12:05:00.782Z,59.08
2023-05-09T12:06:00.119Z,56.87
2023-05-09T12:07:00.376Z,56.37
2023-05-09T12:08:00.068Z,57.26
2023-05-09T12:09:00.905Z,55.87
2023-05-09T12:10:00.167Z,55.57
2023-05-09T12:11:01.241Z,58.06
2023-05-09T12:11:59.971Z,56.87
2023-05-09T12:13:01.046Z,56.07
2023-05-09T12:14:00.953Z,55.77
2023-05-09T12:15:00.832Z,57.17
2023-05-09T12:16:00.788Z,55.67
2023-05-09T12:17:01.173Z,56.37
2023-05-09T12:18:00.061Z,55.10
2023-05-09T12:19:00.967Z,56.40
2023-05-09T12:20:00.894Z,55.50
2023-05-09T12:20:59.892Z,56.30
2023-05-09T12:22:00.671Z,57.29
2023-05-09T12:23:00.123Z,56.59
2023-05-09T12:24:01.004Z,56.72
2023-05-09T12:24:59.951Z,56.92
2023-05-09T12:26:00.810Z,58.01
2023-05-09T12:26:59.825Z,58.61
2023-05-09T12:28:00.033Z,56.62
2023-05-09T12:28:59.794Z,56.45
2023-05-09T12:29:59.777Z,56.85
2023-05-09T12:31:00.855Z,58.34
2023-05-09T12:32:00.738Z,59.83
2023-05-09T12:33:00.748Z,60.83
2023-05-09T12:33:59.730Z,60.43
2023-05-09T12:34:59.870Z,61.60
2023-05-09T12:35:59.735Z,61.40
2023-05-09T12:36:59.692Z,60.73
2023-05-09T12:38:00.040Z,61.13
2023-05-09T12:38:59.691Z,61.72
2023-05-09T12:40:00.504Z,62.42
2023-05-09T12:41:01.508Z,61.63
2023-05-09T12:42:01.974Z,62.92
2023-05-09T12:43:00.092Z,62.13
2023-05-09T12:43:59.634Z,62.62
2023-05-09T12:45:00.545Z,61.63
2023-05-09T12:45:59.624Z,62.19
2023-05-09T12:46:59.815Z,61.40
2023-05-09T12:48:00.773Z,60.97
2023-05-09T12:48:59.692Z,61.27
2023-05-09T12:49:59.706Z,59.58
2023-05-09T12:51:00.469Z,60.97
2023-05-09T12:52:02.972Z,61.34